sensor_id;sensor_type;location;lat;lon;timestamp;pressure;altitude;pressure_sealevel;temperature
11792;BMP180;5953;52.372;9.918;2023-11-19T00:00:54;100164.00;;;11.10
11792;BMP180;5953;52.372;9.918;2023-11-19T00:03:22;100162.00;;;11.10
11792;BMP180;5953;52.372;9.918;2023-11-19T00:05:50;100150.00;;;11.00
11792;BMP180;5953;52.372;9.918;2023-11-19T00:08:19;100143.00;;;11.10
11792;BMP180;5953;52.372;9.918;2023-11-19T00:10:47;100146.00;;;11.20
11792;BMP180;5953;52.372;9.918;2023-11-19T00:13:15;100127.00;;;11.10
11792;BMP180;5953;52.372;9.918;2023-11-19T00:15:42;100134.00;;;11.10
11792;BMP180;5953;52.372;9.918;2023-11-19T00:18:17;100133.00;;;11.20
11792;BMP180;5953;52.372;9.918;2023-11-19T00:20:51;100119.00;;;11.20
11792;BMP180;5953;52.372;9.918;2023-11-19T00:23:20;100109.00;;;11.30
11792;BMP180;5953;52.372;9.918;2023-11-19T00:25:49;100097.00;;;11.30
11792;BMP180;5953;52.372;9.918;2023-11-19T00:28:17;100078.00;;;11.30
11792;BMP180;5953;52.372;9.918;2023-11-19T00:30:45;100068.00;;;11.40
11792;BMP180;5953;52.372;9.918;2023-11-19T00:33:13;100076.00;;;11.40
11792;BMP180;5953;52.372;9.918;2023-11-19T00:35:41;100075.00;;;11.40
11792;BMP180;5953;52.372;9.918;2023-11-19T00:38:10;100073.00;;;11.50
11792;BMP180;5953;52.372;9.918;2023-11-19T00:40:39;100074.00;;;11.50
11792;BMP180;5953;52.372;9.918;2023-11-19T00:43:07;100080.00;;;11.50
11792;BMP180;5953;52.372;9.918;2023-11-19T00:45:35;100073.00;;;11.50
11792;BMP180;5953;52.372;9.918;2023-11-19T00:48:04;100060.00;;;11.50
11792;BMP180;5953;52.372;9.918;2023-11-19T00:50:32;100069.00;;;11.60
11792;BMP180;5953;52.372;9.918;2023-11-19T00:53:03;100058.00;;;11.70
11792;BMP180;5953;52.372;9.918;2023-11-19T00:55:31;100044.00;;;11.50
11792;BMP180;5953;52.372;9.918;2023-11-19T00:58:00;100048.00;;;11.50
11792;BMP180;5953;52.372;9.918;2023-11-19T01:00:29;100035.00;;;11.30
11792;BMP180;5953;52.372;9.918;2023-11-19T01:02:59;100030.00;;;11.40
11792;BMP180;5953;52.372;9.918;2023-11-19T01:05:27;100040.00;;;11.30
11792;BMP180;5953;52.372;9.918;2023-11-19T01:07:54;100036.00;;;11.40
11792;BMP180;5953;52.372;9.918;2023-11-19T01:10:22;100029.00;;;11.10
11792;BMP180;5953;52.372;9.918;2023-11-19T01:12:51;100020.00;;;11.20
11792;BMP180;5953;52.372;9.918;2023-11-19T01:15:21;100005.00;;;11.30
11792;BMP180;5953;52.372;9.918;2023-11-19T01:17:49;99996.00;;;11.30
11792;BMP180;5953;52.372;9.918;2023-11-19T01:20:40;99986.00;;;11.40
11792;BMP180;5953;52.372;9.918;2023-11-19T01:23:07;99988.00;;;11.50
11792;BMP180;5953;52.372;9.918;2023-11-19T01:25:35;99964.00;;;11.60
11792;BMP180;5953;52.372;9.918;2023-11-19T01:28:04;99968.00;;;11.40
11792;BMP180;5953;52.372;9.918;2023-11-19T01:30:33;99976.00;;;11.10
11792;BMP180;5953;52.372;9.918;2023-11-19T01:33:01;99969.00;;;11.60
11792;BMP180;5953;52.372;9.918;2023-11-19T01:35:29;99989.00;;;11.40
11792;BMP180;5953;52.372;9.918;2023-11-19T01:37:57;99958.00;;;11.60
11792;BMP180;5953;52.372;9.918;2023-11-19T01:40:25;99949.00;;;11.60
11792;BMP180;5953;52.372;9.918;2023-11-19T01:42:53;99971.00;;;11.60
11792;BMP180;5953;52.372;9.918;2023-11-19T01:45:26;99968.00;;;11.70
11792;BMP180;5953;52.372;9.918;2023-11-19T01:47:57;99964.00;;;11.80
11792;BMP180;5953;52.372;9.918;2023-11-19T01:50:25;99953.00;;;11.60
11792;BMP180;5953;52.372;9.918;2023-11-19T01:52:54;99947.00;;;11.80
11792;BMP180;5953;52.372;9.918;2023-11-19T01:55:25;99941.00;;;12.00
11792;BMP180;5953;52.372;9.918;2023-11-19T01:57:55;99959.00;;;11.80
11792;BMP180;5953;52.372;9.918;2023-11-19T02:00:27;99951.00;;;11.80
11792;BMP180;5953;52.372;9.918;2023-11-19T02:02:56;99939.00;;;11.40
11792;BMP180;5953;52.372;9.918;2023-11-19T02:05:25;99924.00;;;11.80
11792;BMP180;5953;52.372;9.918;2023-11-19T02:07:53;99922.00;;;11.70
11792;BMP180;5953;52.372;9.918;2023-11-19T02:10:33;99910.00;;;11.90
11792;BMP180;5953;52.372;9.918;2023-11-19T02:13:07;99918.00;;;11.90
11792;BMP180;5953;52.372;9.918;2023-11-19T02:15:36;99934.00;;;11.20
11792;BMP180;5953;52.372;9.918;2023-11-19T02:18:22;99905.00;;;11.80
11792;BMP180;5953;52.372;9.918;2023-11-19T02:20:51;99903.00;;;11.70
11792;BMP180;5953;52.372;9.918;2023-11-19T02:23:26;99906.00;;;12.00
11792;BMP180;5953;52.372;9.918;2023-11-19T02:26:02;99900.00;;;11.90
11792;BMP180;5953;52.372;9.918;2023-11-19T02:28:33;99908.00;;;11.60
11792;BMP180;5953;52.372;9.918;2023-11-19T02:31:01;99897.00;;;11.80
11792;BMP180;5953;52.372;9.918;2023-11-19T02:33:31;99901.00;;;11.80
11792;BMP180;5953;52.372;9.918;2023-11-19T02:35:58;99891.00;;;11.90
11792;BMP180;5953;52.372;9.918;2023-11-19T02:38:26;99888.00;;;11.80
11792;BMP180;5953;52.372;9.918;2023-11-19T02:40:54;99872.00;;;11.90
11792;BMP180;5953;52.372;9.918;2023-11-19T02:43:22;99876.00;;;11.60
11792;BMP180;5953;52.372;9.918;2023-11-19T02:45:51;99878.00;;;12.00
11792;BMP180;5953;52.372;9.918;2023-11-19T02:48:22;99865.00;;;11.90
11792;BMP180;5953;52.372;9.918;2023-11-19T02:50:50;99849.00;;;11.90
11792;BMP180;5953;52.372;9.918;2023-11-19T02:53:19;99864.00;;;12.10
11792;BMP180;5953;52.372;9.918;2023-11-19T02:55:48;99848.00;;;11.90
11792;BMP180;5953;52.372;9.918;2023-11-19T02:58:16;99842.00;;;12.10
11792;BMP180;5953;52.372;9.918;2023-11-19T03:00:51;99846.00;;;11.90
11792;BMP180;5953;52.372;9.918;2023-11-19T03:03:24;99813.00;;;11.90
11792;BMP180;5953;52.372;9.918;2023-11-19T03:05:55;99817.00;;;12.00
11792;BMP180;5953;52.372;9.918;2023-11-19T03:08:23;99839.00;;;11.90
11792;BMP180;5953;52.372;9.918;2023-11-19T03:10:51;99827.00;;;12.00
11792;BMP180;5953;52.372;9.918;2023-11-19T03:13:19;99811.00;;;12.10
11792;BMP180;5953;52.372;9.918;2023-11-19T03:15:47;99811.00;;;12.30
11792;BMP180;5953;52.372;9.918;2023-11-19T03:18:17;99804.00;;;12.00
11792;BMP180;5953;52.372;9.918;2023-11-19T03:20:46;99803.00;;;12.20
11792;BMP180;5953;52.372;9.918;2023-11-19T03:23:13;99799.00;;;12.40
11792;BMP180;5953;52.372;9.918;2023-11-19T03:25:41;99806.00;;;12.40
11792;BMP180;5953;52.372;9.918;2023-11-19T03:28:10;99807.00;;;12.30
11792;BMP180;5953;52.372;9.918;2023-11-19T03:30:38;99803.00;;;12.50
11792;BMP180;5953;52.372;9.918;2023-11-19T03:33:06;99800.00;;;12.50
11792;BMP180;5953;52.372;9.918;2023-11-19T03:35:36;99797.00;;;12.40
11792;BMP180;5953;52.372;9.918;2023-11-19T03:38:03;99807.00;;;12.50
11792;BMP180;5953;52.372;9.918;2023-11-19T03:40:31;99799.00;;;12.60
11792;BMP180;5953;52.372;9.918;2023-11-19T03:42:59;99788.00;;;12.80
11792;BMP180;5953;52.372;9.918;2023-11-19T03:45:27;99799.00;;;12.40
11792;BMP180;5953;52.372;9.918;2023-11-19T03:47:55;99805.00;;;12.50
11792;BMP180;5953;52.372;9.918;2023-11-19T03:50:22;99797.00;;;12.70
11792;BMP180;5953;52.372;9.918;2023-11-19T03:52:52;99793.00;;;12.30
11792;BMP180;5953;52.372;9.918;2023-11-19T03:55:20;99793.00;;;12.60
11792;BMP180;5953;52.372;9.918;2023-11-19T03:57:46;99789.00;;;12.70
11792;BMP180;5953;52.372;9.918;2023-11-19T04:00:15;99789.00;;;12.50
11792;BMP180;5953;52.372;9.918;2023-11-19T04:02:43;99776.00;;;12.80
11792;BMP180;5953;52.372;9.918;2023-11-19T04:05:13;99776.00;;;12.60
11792;BMP180;5953;52.372;9.918;2023-11-19T04:07:41;99768.00;;;12.80
11792;BMP180;5953;52.372;9.918;2023-11-19T04:10:10;99767.00;;;12.90
11792;BMP180;5953;52.372;9.918;2023-11-19T04:12:38;99769.00;;;13.00
11792;BMP180;5953;52.372;9.918;2023-11-19T04:15:07;99775.00;;;12.80
11792;BMP180;5953;52.372;9.918;2023-11-19T04:17:35;99774.00;;;12.20
11792;BMP180;5953;52.372;9.918;2023-11-19T04:20:03;99774.00;;;13.00
11792;BMP180;5953;52.372;9.918;2023-11-19T04:22:32;99769.00;;;13.00
11792;BMP180;5953;52.372;9.918;2023-11-19T04:25:00;99776.00;;;13.20
11792;BMP180;5953;52.372;9.918;2023-11-19T04:27:29;99773.00;;;13.30
11792;BMP180;5953;52.372;9.918;2023-11-19T04:29:57;99775.00;;;13.20
11792;BMP180;5953;52.372;9.918;2023-11-19T04:32:27;99788.00;;;13.10
11792;BMP180;5953;52.372;9.918;2023-11-19T04:34:55;99776.00;;;13.30
11792;BMP180;5953;52.372;9.918;2023-11-19T04:37:23;99761.00;;;13.10
11792;BMP180;5953;52.372;9.918;2023-11-19T04:39:51;99770.00;;;13.40
11792;BMP180;5953;52.372;9.918;2023-11-19T04:42:19;99770.00;;;13.60
11792;BMP180;5953;52.372;9.918;2023-11-19T04:44:51;99765.00;;;13.70
11792;BMP180;5953;52.372;9.918;2023-11-19T04:47:19;99762.00;;;13.60
11792;BMP180;5953;52.372;9.918;2023-11-19T04:49:46;99756.00;;;13.60
11792;BMP180;5953;52.372;9.918;2023-11-19T04:52:14;99772.00;;;13.80
11792;BMP180;5953;52.372;9.918;2023-11-19T04:54:43;99771.00;;;13.70
11792;BMP180;5953;52.372;9.918;2023-11-19T04:57:11;99769.00;;;13.90
11792;BMP180;5953;52.372;9.918;2023-11-19T04:59:39;99782.00;;;14.00
11792;BMP180;5953;52.372;9.918;2023-11-19T05:02:09;99775.00;;;13.80
11792;BMP180;5953;52.372;9.918;2023-11-19T05:04:37;99777.00;;;14.00
11792;BMP180;5953;52.372;9.918;2023-11-19T05:07:05;99772.00;;;14.00
11792;BMP180;5953;52.372;9.918;2023-11-19T05:09:33;99755.00;;;14.00
11792;BMP180;5953;52.372;9.918;2023-11-19T05:12:01;99751.00;;;14.10
11792;BMP180;5953;52.372;9.918;2023-11-19T05:14:29;99742.00;;;14.20
11792;BMP180;5953;52.372;9.918;2023-11-19T05:16:57;99743.00;;;14.10
11792;BMP180;5953;52.372;9.918;2023-11-19T05:19:26;99723.00;;;14.30
11792;BMP180;5953;52.372;9.918;2023-11-19T05:21:55;99730.00;;;14.20
11792;BMP180;5953;52.372;9.918;2023-11-19T05:24:23;99732.00;;;14.50
11792;BMP180;5953;52.372;9.918;2023-11-19T05:26:51;99730.00;;;14.40
11792;BMP180;5953;52.372;9.918;2023-11-19T05:29:19;99717.00;;;14.40
11792;BMP180;5953;52.372;9.918;2023-11-19T05:31:47;99727.00;;;14.60
11792;BMP180;5953;52.372;9.918;2023-11-19T05:34:15;99727.00;;;14.70
11792;BMP180;5953;52.372;9.918;2023-11-19T05:36:45;99731.00;;;14.80
11792;BMP180;5953;52.372;9.918;2023-11-19T05:39:13;99727.00;;;14.90
11792;BMP180;5953;52.372;9.918;2023-11-19T05:41:41;99725.00;;;14.80
11792;BMP180;5953;52.372;9.918;2023-11-19T05:44:08;99729.00;;;14.90
11792;BMP180;5953;52.372;9.918;2023-11-19T05:46:36;99737.00;;;14.70
11792;BMP180;5953;52.372;9.918;2023-11-19T05:49:09;99735.00;;;14.80
11792;BMP180;5953;52.372;9.918;2023-11-19T05:51:37;99741.00;;;15.00
11792;BMP180;5953;52.372;9.918;2023-11-19T05:54:08;99736.00;;;15.10
11792;BMP180;5953;52.372;9.918;2023-11-19T05:56:36;99733.00;;;15.10
11792;BMP180;5953;52.372;9.918;2023-11-19T05:59:04;99731.00;;;15.20
11792;BMP180;5953;52.372;9.918;2023-11-19T06:01:35;99741.00;;;15.10
11792;BMP180;5953;52.372;9.918;2023-11-19T06:04:04;99734.00;;;15.00
11792;BMP180;5953;52.372;9.918;2023-11-19T06:06:33;99729.00;;;15.00
11792;BMP180;5953;52.372;9.918;2023-11-19T06:09:01;99725.00;;;15.00
11792;BMP180;5953;52.372;9.918;2023-11-19T06:11:37;99716.00;;;14.90
11792;BMP180;5953;52.372;9.918;2023-11-19T06:14:05;99719.00;;;15.00
11792;BMP180;5953;52.372;9.918;2023-11-19T06:16:33;99716.00;;;15.00
11792;BMP180;5953;52.372;9.918;2023-11-19T06:19:03;99719.00;;;15.10
11792;BMP180;5953;52.372;9.918;2023-11-19T06:21:31;99727.00;;;15.10
11792;BMP180;5953;52.372;9.918;2023-11-19T06:23:59;99733.00;;;14.90
11792;BMP180;5953;52.372;9.918;2023-11-19T06:26:27;99733.00;;;15.10
11792;BMP180;5953;52.372;9.918;2023-11-19T06:28:56;99734.00;;;15.00
11792;BMP180;5953;52.372;9.918;2023-11-19T06:31:24;99736.00;;;15.20
11792;BMP180;5953;52.372;9.918;2023-11-19T06:33:52;99732.00;;;15.30
11792;BMP180;5953;52.372;9.918;2023-11-19T06:36:19;99743.00;;;15.30
11792;BMP180;5953;52.372;9.918;2023-11-19T06:38:48;99732.00;;;15.40
11792;BMP180;5953;52.372;9.918;2023-11-19T06:41:16;99752.00;;;15.40
11792;BMP180;5953;52.372;9.918;2023-11-19T06:43:43;99747.00;;;15.40
11792;BMP180;5953;52.372;9.918;2023-11-19T06:46:16;99740.00;;;15.30
11792;BMP180;5953;52.372;9.918;2023-11-19T06:48:44;99744.00;;;15.50
11792;BMP180;5953;52.372;9.918;2023-11-19T06:51:12;99747.00;;;15.40
11792;BMP180;5953;52.372;9.918;2023-11-19T06:53:41;99750.00;;;15.60
11792;BMP180;5953;52.372;9.918;2023-11-19T06:56:18;99763.00;;;15.60
11792;BMP180;5953;52.372;9.918;2023-11-19T06:58:46;99755.00;;;15.60
11792;BMP180;5953;52.372;9.918;2023-11-19T07:01:16;99760.00;;;15.60
11792;BMP180;5953;52.372;9.918;2023-11-19T07:03:44;99761.00;;;15.70
11792;BMP180;5953;52.372;9.918;2023-11-19T07:06:13;99762.00;;;15.70
11792;BMP180;5953;52.372;9.918;2023-11-19T07:08:41;99763.00;;;15.60
11792;BMP180;5953;52.372;9.918;2023-11-19T07:11:09;99766.00;;;15.70
11792;BMP180;5953;52.372;9.918;2023-11-19T07:13:38;99776.00;;;15.70
11792;BMP180;5953;52.372;9.918;2023-11-19T07:16:07;99769.00;;;15.80
11792;BMP180;5953;52.372;9.918;2023-11-19T07:18:40;99780.00;;;15.80
11792;BMP180;5953;52.372;9.918;2023-11-19T07:21:08;99777.00;;;15.80
11792;BMP180;5953;52.372;9.918;2023-11-19T07:23:37;99785.00;;;15.40
11792;BMP180;5953;52.372;9.918;2023-11-19T07:26:06;99794.00;;;15.50
11792;BMP180;5953;52.372;9.918;2023-11-19T07:28:36;99791.00;;;15.60
11792;BMP180;5953;52.372;9.918;2023-11-19T07:31:04;99788.00;;;15.60
11792;BMP180;5953;52.372;9.918;2023-11-19T07:33:34;99797.00;;;15.70
11792;BMP180;5953;52.372;9.918;2023-11-19T07:36:04;99800.00;;;15.70
11792;BMP180;5953;52.372;9.918;2023-11-19T07:38:32;99813.00;;;15.50
11792;BMP180;5953;52.372;9.918;2023-11-19T07:40:59;99820.00;;;15.70
11792;BMP180;5953;52.372;9.918;2023-11-19T07:43:27;99799.00;;;15.80
11792;BMP180;5953;52.372;9.918;2023-11-19T07:45:55;99801.00;;;15.90
11792;BMP180;5953;52.372;9.918;2023-11-19T07:48:25;99812.00;;;15.80
11792;BMP180;5953;52.372;9.918;2023-11-19T07:50:53;99806.00;;;15.80
11792;BMP180;5953;52.372;9.918;2023-11-19T07:53:22;99800.00;;;15.80
11792;BMP180;5953;52.372;9.918;2023-11-19T07:55:50;99812.00;;;15.30
11792;BMP180;5953;52.372;9.918;2023-11-19T07:58:18;99794.00;;;15.60
11792;BMP180;5953;52.372;9.918;2023-11-19T08:00:46;99779.00;;;15.50
11792;BMP180;5953;52.372;9.918;2023-11-19T08:03:14;99788.00;;;15.80
11792;BMP180;5953;52.372;9.918;2023-11-19T08:05:42;99802.00;;;15.90
11792;BMP180;5953;52.372;9.918;2023-11-19T08:08:10;99824.00;;;15.70
11792;BMP180;5953;52.372;9.918;2023-11-19T08:10:40;99828.00;;;15.70
11792;BMP180;5953;52.372;9.918;2023-11-19T08:13:08;99820.00;;;15.90
11792;BMP180;5953;52.372;9.918;2023-11-19T08:15:35;99829.00;;;15.80
11792;BMP180;5953;52.372;9.918;2023-11-19T08:18:03;99810.00;;;16.00
11792;BMP180;5953;52.372;9.918;2023-11-19T08:20:32;99806.00;;;15.80
11792;BMP180;5953;52.372;9.918;2023-11-19T08:23:02;99824.00;;;16.10
11792;BMP180;5953;52.372;9.918;2023-11-19T08:25:30;99832.00;;;16.10
11792;BMP180;5953;52.372;9.918;2023-11-19T08:27:59;99818.00;;;16.30
11792;BMP180;5953;52.372;9.918;2023-11-19T08:30:27;99812.00;;;16.10
11792;BMP180;5953;52.372;9.918;2023-11-19T08:32:54;99825.00;;;16.10
11792;BMP180;5953;52.372;9.918;2023-11-19T08:35:22;99823.00;;;16.10
11792;BMP180;5953;52.372;9.918;2023-11-19T08:37:51;99831.00;;;16.10
11792;BMP180;5953;52.372;9.918;2023-11-19T08:40:19;99826.00;;;16.10
11792;BMP180;5953;52.372;9.918;2023-11-19T08:42:47;99831.00;;;16.00
11792;BMP180;5953;52.372;9.918;2023-11-19T08:45:16;99803.00;;;16.10
11792;BMP180;5953;52.372;9.918;2023-11-19T08:47:44;99829.00;;;16.00
11792;BMP180;5953;52.372;9.918;2023-11-19T08:50:12;99824.00;;;15.90
11792;BMP180;5953;52.372;9.918;2023-11-19T08:52:40;99832.00;;;16.10
11792;BMP180;5953;52.372;9.918;2023-11-19T08:55:08;99825.00;;;16.10
11792;BMP180;5953;52.372;9.918;2023-11-19T08:57:36;99828.00;;;16.00
11792;BMP180;5953;52.372;9.918;2023-11-19T09:00:05;99826.00;;;16.00
11792;BMP180;5953;52.372;9.918;2023-11-19T09:02:36;99826.00;;;15.90
11792;BMP180;5953;52.372;9.918;2023-11-19T09:05:05;99829.00;;;15.90
11792;BMP180;5953;52.372;9.918;2023-11-19T09:07:34;99850.00;;;15.80
11792;BMP180;5953;52.372;9.918;2023-11-19T09:10:02;99845.00;;;16.00
11792;BMP180;5953;52.372;9.918;2023-11-19T09:12:31;99842.00;;;16.00
11792;BMP180;5953;52.372;9.918;2023-11-19T09:14:59;99849.00;;;15.90
11792;BMP180;5953;52.372;9.918;2023-11-19T09:17:27;99853.00;;;16.10
11792;BMP180;5953;52.372;9.918;2023-11-19T09:19:57;99854.00;;;16.20
11792;BMP180;5953;52.372;9.918;2023-11-19T09:22:24;99856.00;;;15.90
11792;BMP180;5953;52.372;9.918;2023-11-19T09:24:52;99847.00;;;16.20
11792;BMP180;5953;52.372;9.918;2023-11-19T09:27:20;99860.00;;;16.20
11792;BMP180;5953;52.372;9.918;2023-11-19T09:29:48;99866.00;;;16.10
11792;BMP180;5953;52.372;9.918;2023-11-19T09:32:21;99871.00;;;16.30
11792;BMP180;5953;52.372;9.918;2023-11-19T09:34:49;99875.00;;;16.40
11792;BMP180;5953;52.372;9.918;2023-11-19T09:37:19;99865.00;;;16.60
11792;BMP180;5953;52.372;9.918;2023-11-19T09:39:47;99871.00;;;16.50
11792;BMP180;5953;52.372;9.918;2023-11-19T09:42:15;99872.00;;;16.60
11792;BMP180;5953;52.372;9.918;2023-11-19T09:44:44;99866.00;;;16.50
11792;BMP180;5953;52.372;9.918;2023-11-19T09:47:14;99883.00;;;16.40
11792;BMP180;5953;52.372;9.918;2023-11-19T09:49:43;99860.00;;;16.60
11792;BMP180;5953;52.372;9.918;2023-11-19T09:52:11;99870.00;;;16.70
11792;BMP180;5953;52.372;9.918;2023-11-19T09:54:40;99866.00;;;16.50
11792;BMP180;5953;52.372;9.918;2023-11-19T09:57:08;99860.00;;;16.50
11792;BMP180;5953;52.372;9.918;2023-11-19T09:59:38;99871.00;;;16.60
11792;BMP180;5953;52.372;9.918;2023-11-19T10:02:07;99871.00;;;16.60
11792;BMP180;5953;52.372;9.918;2023-11-19T10:04:38;99866.00;;;16.80
11792;BMP180;5953;52.372;9.918;2023-11-19T10:07:07;99863.00;;;16.70
11792;BMP180;5953;52.372;9.918;2023-11-19T10:09:35;99852.00;;;16.60
11792;BMP180;5953;52.372;9.918;2023-11-19T10:12:04;99857.00;;;16.70
11792;BMP180;5953;52.372;9.918;2023-11-19T10:14:34;99867.00;;;16.70
11792;BMP180;5953;52.372;9.918;2023-11-19T10:17:07;99876.00;;;16.70
11792;BMP180;5953;52.372;9.918;2023-11-19T10:19:35;99871.00;;;16.70
11792;BMP180;5953;52.372;9.918;2023-11-19T10:22:04;99863.00;;;16.40
11792;BMP180;5953;52.372;9.918;2023-11-19T10:24:33;99864.00;;;16.50
11792;BMP180;5953;52.372;9.918;2023-11-19T10:27:08;99874.00;;;16.60
11792;BMP180;5953;52.372;9.918;2023-11-19T10:29:36;99870.00;;;16.60
11792;BMP180;5953;52.372;9.918;2023-11-19T10:32:04;99868.00;;;16.40
11792;BMP180;5953;52.372;9.918;2023-11-19T10:34:52;99855.00;;;16.50
11792;BMP180;5953;52.372;9.918;2023-11-19T10:37:29;99854.00;;;16.30
11792;BMP180;5953;52.372;9.918;2023-11-19T10:39:58;99878.00;;;16.80
11792;BMP180;5953;52.372;9.918;2023-11-19T10:42:27;99871.00;;;16.30
11792;BMP180;5953;52.372;9.918;2023-11-19T10:44:55;99871.00;;;16.60
11792;BMP180;5953;52.372;9.918;2023-11-19T10:47:23;99868.00;;;16.50
11792;BMP180;5953;52.372;9.918;2023-11-19T10:49:54;99857.00;;;16.70
11792;BMP180;5953;52.372;9.918;2023-11-19T10:52:23;99862.00;;;16.70
11792;BMP180;5953;52.372;9.918;2023-11-19T10:54:51;99862.00;;;16.80
11792;BMP180;5953;52.372;9.918;2023-11-19T10:57:20;99840.00;;;16.70
11792;BMP180;5953;52.372;9.918;2023-11-19T10:59:52;99865.00;;;16.70
11792;BMP180;5953;52.372;9.918;2023-11-19T11:02:24;99861.00;;;16.40
11792;BMP180;5953;52.372;9.918;2023-11-19T11:04:54;99856.00;;;16.60
11792;BMP180;5953;52.372;9.918;2023-11-19T11:07:22;99864.00;;;17.00
11792;BMP180;5953;52.372;9.918;2023-11-19T11:10:02;99862.00;;;17.20
11792;BMP180;5953;52.372;9.918;2023-11-19T11:12:35;99857.00;;;16.90
11792;BMP180;5953;52.372;9.918;2023-11-19T11:15:06;99854.00;;;17.00
11792;BMP180;5953;52.372;9.918;2023-11-19T11:17:35;99877.00;;;16.90
11792;BMP180;5953;52.372;9.918;2023-11-19T11:20:05;99853.00;;;16.90
11792;BMP180;5953;52.372;9.918;2023-11-19T11:22:44;99865.00;;;17.00
11792;BMP180;5953;52.372;9.918;2023-11-19T11:25:23;99862.00;;;17.20
11792;BMP180;5953;52.372;9.918;2023-11-19T11:28:10;99858.00;;;17.20
11792;BMP180;5953;52.372;9.918;2023-11-19T11:30:59;99861.00;;;17.30
11792;BMP180;5953;52.372;9.918;2023-11-19T11:33:38;99865.00;;;17.40
11792;BMP180;5953;52.372;9.918;2023-11-19T11:36:14;99860.00;;;17.60
11792;BMP180;5953;52.372;9.918;2023-11-19T11:38:47;99854.00;;;17.70
11792;BMP180;5953;52.372;9.918;2023-11-19T11:41:17;99857.00;;;17.10
11792;BMP180;5953;52.372;9.918;2023-11-19T11:43:47;99845.00;;;17.30
11792;BMP180;5953;52.372;9.918;2023-11-19T11:46:54;99854.00;;;17.40
11792;BMP180;5953;52.372;9.918;2023-11-19T11:49:25;99853.00;;;17.40
11792;BMP180;5953;52.372;9.918;2023-11-19T11:52:01;99849.00;;;17.70
11792;BMP180;5953;52.372;9.918;2023-11-19T11:54:30;99858.00;;;17.50
11792;BMP180;5953;52.372;9.918;2023-11-19T11:57:09;99872.00;;;17.60
11792;BMP180;5953;52.372;9.918;2023-11-19T11:59:45;99860.00;;;17.60
11792;BMP180;5953;52.372;9.918;2023-11-19T12:02:17;99853.00;;;17.60
11792;BMP180;5953;52.372;9.918;2023-11-19T12:04:48;99842.00;;;17.90
11792;BMP180;5953;52.372;9.918;2023-11-19T12:07:18;99861.00;;;17.80
11792;BMP180;5953;52.372;9.918;2023-11-19T12:09:48;99850.00;;;17.90
11792;BMP180;5953;52.372;9.918;2023-11-19T12:12:21;99843.00;;;17.90
11792;BMP180;5953;52.372;9.918;2023-11-19T12:15:03;99856.00;;;17.70
11792;BMP180;5953;52.372;9.918;2023-11-19T12:17:49;99853.00;;;17.60
11792;BMP180;5953;52.372;9.918;2023-11-19T12:20:19;99861.00;;;17.60
11792;BMP180;5953;52.372;9.918;2023-11-19T12:22:50;99861.00;;;17.50
11792;BMP180;5953;52.372;9.918;2023-11-19T12:25:19;99863.00;;;17.60
11792;BMP180;5953;52.372;9.918;2023-11-19T12:27:49;99858.00;;;17.70
11792;BMP180;5953;52.372;9.918;2023-11-19T12:30:21;99843.00;;;17.80
11792;BMP180;5953;52.372;9.918;2023-11-19T12:32:51;99855.00;;;17.60
11792;BMP180;5953;52.372;9.918;2023-11-19T12:35:21;99849.00;;;17.50
11792;BMP180;5953;52.372;9.918;2023-11-19T12:37:49;99846.00;;;17.10
11792;BMP180;5953;52.372;9.918;2023-11-19T12:40:19;99856.00;;;17.50
11792;BMP180;5953;52.372;9.918;2023-11-19T12:42:48;99859.00;;;17.30
11792;BMP180;5953;52.372;9.918;2023-11-19T12:45:17;99853.00;;;17.60
11792;BMP180;5953;52.372;9.918;2023-11-19T12:47:47;99850.00;;;17.80
11792;BMP180;5953;52.372;9.918;2023-11-19T12:50:17;99853.00;;;17.70
11792;BMP180;5953;52.372;9.918;2023-11-19T12:52:55;99858.00;;;17.60
11792;BMP180;5953;52.372;9.918;2023-11-19T12:55:27;99849.00;;;17.50
11792;BMP180;5953;52.372;9.918;2023-11-19T12:57:57;99854.00;;;17.10
11792;BMP180;5953;52.372;9.918;2023-11-19T13:00:26;99860.00;;;17.20
11792;BMP180;5953;52.372;9.918;2023-11-19T13:02:56;99858.00;;;17.30
11792;BMP180;5953;52.372;9.918;2023-11-19T13:05:27;99859.00;;;17.00
11792;BMP180;5953;52.372;9.918;2023-11-19T13:07:59;99851.00;;;17.20
11792;BMP180;5953;52.372;9.918;2023-11-19T13:10:27;99860.00;;;17.20
11792;BMP180;5953;52.372;9.918;2023-11-19T13:13:06;99862.00;;;16.90
11792;BMP180;5953;52.372;9.918;2023-11-19T13:15:35;99861.00;;;16.90
11792;BMP180;5953;52.372;9.918;2023-11-19T13:18:03;99867.00;;;16.80
11792;BMP180;5953;52.372;9.918;2023-11-19T13:20:32;99824.00;;;17.00
11792;BMP180;5953;52.372;9.918;2023-11-19T13:23:02;99856.00;;;16.80
11792;BMP180;5953;52.372;9.918;2023-11-19T13:25:30;99857.00;;;16.80
11792;BMP180;5953;52.372;9.918;2023-11-19T13:27:59;99853.00;;;16.90
11792;BMP180;5953;52.372;9.918;2023-11-19T13:30:27;99842.00;;;16.60
11792;BMP180;5953;52.372;9.918;2023-11-19T13:32:55;99855.00;;;17.00
11792;BMP180;5953;52.372;9.918;2023-11-19T13:35:23;99853.00;;;16.80
11792;BMP180;5953;52.372;9.918;2023-11-19T13:37:53;99843.00;;;16.90
11792;BMP180;5953;52.372;9.918;2023-11-19T13:40:21;99856.00;;;17.00
11792;BMP180;5953;52.372;9.918;2023-11-19T13:42:51;99851.00;;;16.50
11792;BMP180;5953;52.372;9.918;2023-11-19T13:45:19;99827.00;;;16.90
11792;BMP180;5953;52.372;9.918;2023-11-19T13:47:47;99845.00;;;16.90
11792;BMP180;5953;52.372;9.918;2023-11-19T13:50:16;99845.00;;;16.80
11792;BMP180;5953;52.372;9.918;2023-11-19T13:52:44;99834.00;;;16.60
11792;BMP180;5953;52.372;9.918;2023-11-19T13:55:15;99843.00;;;16.70
11792;BMP180;5953;52.372;9.918;2023-11-19T13:57:43;99818.00;;;16.70
11792;BMP180;5953;52.372;9.918;2023-11-19T14:00:12;99841.00;;;16.90
11792;BMP180;5953;52.372;9.918;2023-11-19T14:02:42;99841.00;;;16.80
11792;BMP180;5953;52.372;9.918;2023-11-19T14:05:11;99822.00;;;16.80
11792;BMP180;5953;52.372;9.918;2023-11-19T14:07:39;99832.00;;;16.70
11792;BMP180;5953;52.372;9.918;2023-11-19T14:10:08;99830.00;;;16.60
11792;BMP180;5953;52.372;9.918;2023-11-19T14:12:39;99839.00;;;16.70
11792;BMP180;5953;52.372;9.918;2023-11-19T14:15:08;99839.00;;;16.50
11792;BMP180;5953;52.372;9.918;2023-11-19T14:17:39;99843.00;;;16.70
11792;BMP180;5953;52.372;9.918;2023-11-19T14:20:07;99848.00;;;16.60
11792;BMP180;5953;52.372;9.918;2023-11-19T14:22:39;99842.00;;;16.50
11792;BMP180;5953;52.372;9.918;2023-11-19T14:25:08;99830.00;;;16.60
11792;BMP180;5953;52.372;9.918;2023-11-19T14:27:39;99829.00;;;16.60
11792;BMP180;5953;52.372;9.918;2023-11-19T14:30:08;99836.00;;;16.70
11792;BMP180;5953;52.372;9.918;2023-11-19T14:32:38;99840.00;;;16.80
11792;BMP180;5953;52.372;9.918;2023-11-19T14:35:07;99819.00;;;16.80